Time;durP1;ratioP1;P1;durP2;ratioP2;P2;SDS_P1;SDS_P2;PMS_P1;PMS_P2;Temp;Humidity;BMP_temperature;BMP_pressure;BME280_temperature;BME280_humidity;BME280_pressure;Samples;Min_cycle;Max_cycle;Signal;HPM_P1;HPM_P2
2022/04/21 00:00:47;;;;;;;3.72;3.30;;;8.00;88.90;;;;;;5114780;28;20238;-57
2022/04/21 00:03:14;;;;;;;3.65;3.30;;;8.00;89.50;;;;;;5114733;28;20204;-57
2022/04/21 00:05:42;;;;;;;4.07;3.60;;;8.00;90.10;;;;;;5114550;28;20207;-56
2022/04/21 00:08:09;;;;;;;3.63;2.92;;;8.00;89.90;;;;;;5113980;28;20219;-54
2022/04/21 00:10:36;;;;;;;3.67;3.38;;;8.00;90.20;;;;;;5113750;28;20200;-56
2022/04/21 00:13:05;;;;;;;5.80;3.60;;;8.00;90.20;;;;;;5113363;28;20202;-55
2022/04/21 00:15:34;;;;;;;3.90;3.55;;;7.90;90.30;;;;;;5113188;28;20226;-54
2022/04/21 00:18:01;;;;;;;4.47;3.55;;;7.90;90.50;;;;;;5113471;28;20726;-56
2022/04/21 00:20:29;;;;;;;5.45;3.55;;;7.90;90.60;;;;;;5113774;28;20203;-56
2022/04/21 00:25:41;;;;;;;4.30;3.28;;;7.80;90.90;;;;;;5116619;28;20175;-57
2022/04/21 00:28:08;;;;;;;3.65;3.35;;;7.80;91.00;;;;;;5117372;28;20768;-58
2022/04/21 00:30:36;;;;;;;6.50;3.78;;;7.80;91.10;;;;;;5117630;28;20285;-56
2022/04/21 00:33:04;;;;;;;4.10;3.45;;;7.80;91.10;;;;;;5117854;27;20226;-56
2022/04/21 00:35:31;;;;;;;5.10;4.57;;;7.70;91.30;;;;;;5117827;28;20222;-55
2022/04/21 00:37:59;;;;;;;5.38;4.43;;;7.70;91.60;;;;;;5117479;28;20238;-57
2022/04/21 00:40:27;;;;;;;6.70;3.80;;;7.70;91.50;;;;;;5117971;28;20215;-56
2022/04/21 00:42:55;;;;;;;7.28;4.10;;;7.70;91.60;;;;;;5117459;28;20200;-56
2022/04/21 00:45:23;;;;;;;5.25;4.05;;;7.60;91.70;;;;;;5117301;28;20202;-57
2022/04/21 00:47:53;;;;;;;5.40;4.38;;;7.60;91.80;;;;;;5117547;28;20223;-58
2022/04/21 00:50:22;;;;;;;4.50;3.85;;;7.60;91.90;;;;;;5117658;28;20187;-56
2022/04/21 00:52:50;;;;;;;6.38;4.18;;;7.60;91.90;;;;;;5117396;28;20282;-56
2022/04/21 00:55:18;;;;;;;4.32;3.90;;;7.50;92.10;;;;;;5116850;28;20226;-56
2022/04/21 00:57:47;;;;;;;4.20;3.70;;;7.50;92.20;;;;;;5116976;28;20234;-57
2022/04/21 01:00:16;;;;;;;7.00;4.55;;;7.50;92.40;;;;;;5116972;28;20667;-55
2022/04/21 01:02:53;;;;;;;5.15;4.05;;;7.40;92.50;;;;;;5116641;28;20203;-55
2022/04/21 01:05:29;;;;;;;5.85;3.78;;;7.40;92.60;;;;;;5117246;28;20256;-56
2022/04/21 01:07:57;;;;;;;6.90;4.65;;;7.40;92.80;;;;;;5117129;28;20215;-55
2022/04/21 01:10:26;;;;;;;6.95;4.55;;;7.30;92.80;;;;;;5117311;27;20257;-56
2022/04/21 01:12:54;;;;;;;5.60;4.28;;;7.30;92.90;;;;;;5118807;28;20796;-56
2022/04/21 01:15:21;;;;;;;4.40;3.85;;;7.30;93.00;;;;;;5119084;28;20223;-56
2022/04/21 01:17:48;;;;;;;4.40;4.00;;;7.20;93.10;;;;;;5119963;28;20219;-56
2022/04/21 01:20:18;;;;;;;5.65;4.40;;;7.20;93.30;;;;;;5117653;28;20199;-56
2022/04/21 01:22:45;;;;;;;4.47;4.07;;;7.10;93.40;;;;;;5117388;28;20210;-57
2022/04/21 01:25:12;;;;;;;4.75;4.18;;;7.10;93.70;;;;;;5118219;28;20210;-56
2022/04/21 01:27:39;;;;;;;5.13;3.90;;;7.10;93.70;;;;;;5118094;28;20269;-57
2022/04/21 01:30:08;;;;;;;4.20;3.80;;;7.00;93.80;;;;;;5118381;28;20196;-56
2022/04/21 01:32:37;;;;;;;3.92;3.63;;;7.00;93.80;;;;;;5118398;28;20204;-56
2022/04/21 01:35:07;;;;;;;6.82;4.55;;;7.00;94.00;;;;;;5117937;27;20230;-56
2022/04/21 01:43:06;;;;;;;6.35;3.83;;;6.90;94.10;;;;;;5117223;28;20277;-57
2022/04/21 01:45:33;;;;;;;4.78;3.95;;;6.90;94.20;;;;;;5116896;28;20202;-55
2022/04/21 01:48:00;;;;;;;5.00;4.03;;;6.80;94.20;;;;;;5116704;28;20231;-57
2022/04/21 01:50:28;;;;;;;6.82;4.15;;;6.80;94.20;;;;;;5116703;28;20203;-56
2022/04/21 01:52:59;;;;;;;3.53;3.22;;;6.80;94.20;;;;;;5116354;28;20206;-56
2022/04/21 01:55:26;;;;;;;5.03;4.00;;;6.80;94.40;;;;;;5116655;28;20614;-56
2022/04/21 01:57:53;;;;;;;4.90;3.80;;;6.70;94.40;;;;;;5116902;28;20642;-56
2022/04/21 02:00:21;;;;;;;6.53;4.00;;;6.70;94.50;;;;;;5115814;28;20264;-56
2022/04/21 02:02:48;;;;;;;4.70;4.18;;;6.70;94.60;;;;;;5116175;28;20207;-55
2022/04/21 02:05:15;;;;;;;4.78;4.13;;;6.70;94.80;;;;;;5115899;28;20581;-56
2022/04/21 02:07:44;;;;;;;4.88;4.22;;;6.70;94.80;;;;;;5116139;28;20734;-55
2022/04/21 02:10:13;;;;;;;5.97;4.22;;;6.60;94.80;;;;;;5115800;28;20248;-54
2022/04/21 02:12:40;;;;;;;5.25;4.40;;;6.60;94.90;;;;;;5115550;28;20671;-56
2022/04/21 02:15:09;;;;;;;5.28;4.78;;;6.50;95.00;;;;;;5115654;28;20703;-56
2022/04/21 02:17:36;;;;;;;4.65;4.25;;;6.50;95.30;;;;;;5115934;28;20226;-57
2022/04/21 02:20:06;;;;;;;6.55;4.35;;;6.40;95.50;;;;;;5115887;28;20680;-56
2022/04/21 02:22:34;;;;;;;5.47;4.00;;;6.40;95.60;;;;;;5116383;28;20235;-57
2022/04/21 02:25:02;;;;;;;4.80;3.95;;;6.30;95.70;;;;;;5115701;28;20192;-56
2022/04/21 02:27:31;;;;;;;8.00;4.10;;;6.30;96.10;;;;;;5115898;28;20215;-56
2022/04/21 02:29:58;;;;;;;4.88;4.18;;;6.20;96.10;;;;;;5115556;28;20192;-57
2022/04/21 02:32:25;;;;;;;7.22;4.30;;;6.20;96.40;;;;;;5115781;27;20202;-56
2022/04/21 02:34:54;;;;;;;4.72;4.30;;;6.20;96.50;;;;;;5115293;28;20226;-56
2022/04/21 02:37:22;;;;;;;5.60;4.38;;;6.10;96.60;;;;;;5115414;28;20196;-57
2022/04/21 02:39:49;;;;;;;5.53;4.80;;;6.10;96.80;;;;;;5115803;28;20244;-56
2022/04/21 02:42:16;;;;;;;5.05;4.05;;;6.00;96.90;;;;;;5115552;28;20697;-56
2022/04/21 02:44:45;;;;;;;6.60;4.47;;;6.00;97.20;;;;;;5115737;28;20207;-56
2022/04/21 02:47:12;;;;;;;5.07;4.55;;;6.00;97.20;;;;;;5115858;28;20200;-57
2022/04/21 02:49:40;;;;;;;5.13;4.22;;;5.90;97.20;;;;;;5115219;28;20203;-57
2022/04/21 02:52:09;;;;;;;7.22;4.45;;;5.90;97.40;;;;;;5116346;28;20256;-56
2022/04/21 02:57:21;;;;;;;4.60;4.10;;;5.80;97.80;;;;;;5116083;28;20183;-56
2022/04/21 02:59:51;;;;;;;4.70;4.30;;;5.80;97.90;;;;;;5115381;28;20298;-57
2022/04/21 03:02:19;;;;;;;4.90;4.40;;;5.80;97.90;;;;;;5115285;28;20223;-55
2022/04/21 03:04:47;;;;;;;6.45;3.83;;;5.80;97.80;;;;;;5115322;28;20197;-56
2022/04/21 03:07:14;;;;;;;5.80;4.00;;;5.80;97.90;;;;;;5115295;28;20226;-55
2022/04/21 03:09:41;;;;;;;6.43;4.90;;;5.80;98.10;;;;;;5114858;28;20200;-56
2022/04/21 03:12:10;;;;;;;4.72;4.22;;;5.80;98.10;;;;;;5114860;28;20253;-57
2022/04/21 03:14:38;;;;;;;6.03;4.60;;;5.80;98.10;;;;;;5114341;28;20219;-57
2022/04/21 03:17:08;;;;;;;6.10;4.65;;;5.80;98.20;;;;;;5114845;28;20195;-56
2022/04/21 03:19:35;;;;;;;5.75;4.65;;;5.80;98.10;;;;;;5114563;28;20220;-57
2022/04/21 03:24:48;;;;;;;8.55;4.53;;;5.80;98.20;;;;;;5114374;28;20180;-57
2022/04/21 03:27:15;;;;;;;7.15;4.20;;;5.70;98.20;;;;;;5114321;28;20226;-57
2022/04/21 03:29:43;;;;;;;4.90;4.28;;;5.70;98.20;;;;;;5114739;28;20321;-57
2022/04/21 03:32:13;;;;;;;5.05;4.38;;;5.70;98.40;;;;;;5114575;28;20196;-54
2022/04/21 03:34:41;;;;;;;6.57;5.20;;;5.60;98.50;;;;;;5114350;28;20579;-56
2022/04/21 03:37:09;;;;;;;5.32;4.82;;;5.60;98.60;;;;;;5113836;28;20668;-55
2022/04/21 03:39:37;;;;;;;7.38;5.70;;;5.60;98.60;;;;;;5153437;22;20226;-55
2022/04/21 03:42:05;;;;;;;5.65;4.90;;;5.60;98.60;;;;;;5134376;27;20207;-56
2022/04/21 03:44:32;;;;;;;6.03;4.60;;;5.60;98.70;;;;;;5134280;27;20198;-56
2022/04/21 03:47:00;;;;;;;6.57;4.93;;;5.60;98.80;;;;;;5134603;27;20203;-55
2022/04/21 03:49:29;;;;;;;4.93;4.43;;;5.60;98.90;;;;;;5134353;27;20219;-55
2022/04/21 03:51:57;;;;;;;6.35;4.30;;;5.60;98.80;;;;;;5134397;27;20203;-55
2022/04/21 03:54:26;;;;;;;5.15;4.50;;;5.60;98.80;;;;;;5134313;27;20210;-55
2022/04/21 03:56:54;;;;;;;5.47;4.85;;;5.50;98.80;;;;;;5134323;27;20209;-56
2022/04/21 03:59:23;;;;;;;9.10;4.38;;;5.50;98.90;;;;;;5133452;27;20215;-55
2022/04/21 04:01:51;;;;;;;7.05;4.80;;;5.50;98.90;;;;;;5134236;27;20238;-55
2022/04/21 04:04:18;;;;;;;5.38;4.88;;;5.50;98.90;;;;;;5134503;27;20206;-57
2022/04/21 04:12:23;;;;;;;4.13;3.72;;;5.50;98.90;;;;;;5132053;28;20182;-55
2022/04/21 04:14:50;;;;;;;5.65;4.55;;;5.50;98.80;;;;;;5131472;28;20236;-55
2022/04/21 04:17:17;;;;;;;6.55;4.85;;;5.50;98.70;;;;;;5131450;28;20203;-55
2022/04/21 04:19:44;;;;;;;6.85;4.55;;;5.50;98.80;;;;;;5131117;28;20725;-55
2022/04/21 04:22:14;;;;;;;6.38;4.47;;;5.50;98.80;;;;;;5131331;28;20533;-57
2022/04/21 04:24:45;;;;;;;5.10;4.18;;;5.50;98.90;;;;;;5131819;28;20608;-55
2022/04/21 04:27:12;;;;;;;5.00;4.20;;;5.50;99.00;;;;;;5130976;28;20195;-56
2022/04/21 04:29:39;;;;;;;6.13;4.50;;;5.60;98.90;;;;;;5131467;28;20223;-55
2022/04/21 04:32:07;;;;;;;4.75;4.35;;;5.70;98.80;;;;;;5131052;28;20198;-55
2022/04/21 04:34:34;;;;;;;6.82;4.10;;;5.70;98.60;;;;;;5131439;27;20202;-55
2022/04/21 04:37:01;;;;;;;4.93;4.43;;;5.80;98.50;;;;;;5131409;27;20200;-56
2022/04/21 04:39:28;;;;;;;5.80;4.80;;;5.80;98.30;;;;;;5130852;27;20226;-56
2022/04/21 04:44:41;;;;;;;6.88;4.38;;;5.90;97.90;;;;;;5131279;28;20530;-55
2022/04/21 04:47:07;;;;;;;5.35;4.57;;;5.90;97.70;;;;;;5130838;27;20614;-55
2022/04/21 04:49:34;;;;;;;5.13;4.63;;;5.90;97.60;;;;;;5130676;28;20246;-56
2022/04/21 04:52:01;;;;;;;6.85;4.80;;;5.90;97.60;;;;;;5130734;28;20541;-56
2022/04/21 04:54:29;;;;;;;4.80;4.40;;;5.90;97.60;;;;;;5131355;27;20196;-56
2022/04/21 04:56:57;;;;;;;6.38;4.32;;;5.90;97.60;;;;;;5130380;28;20211;-56
2022/04/21 04:59:24;;;;;;;5.05;4.38;;;5.90;97.60;;;;;;5130217;28;20219;-55
2022/04/21 05:01:52;;;;;;;5.30;4.63;;;5.90;97.60;;;;;;5131014;28;20199;-56
2022/04/21 05:04:20;;;;;;;5.00;4.53;;;5.90;97.50;;;;;;5130622;28;20202;-56
2022/04/21 05:06:48;;;;;;;4.53;4.13;;;5.90;97.40;;;;;;5130202;28;20206;-56
2022/04/21 05:09:17;;;;;;;6.05;4.55;;;5.90;97.30;;;;;;5129964;28;20230;-56
2022/04/21 05:11:46;;;;;;;4.82;4.32;;;6.00;97.30;;;;;;5130415;28;20207;-56
2022/04/21 05:14:15;;;;;;;5.13;4.63;;;6.00;97.30;;;;;;5130899;28;20211;-56
2022/04/21 05:16:42;;;;;;;5.88;4.00;;;6.00;97.10;;;;;;5130284;28;20199;-56
2022/04/21 05:19:11;;;;;;;6.70;4.90;;;6.10;97.00;;;;;;5127251;27;20242;-56
2022/04/21 05:21:39;;;;;;;5.90;4.20;;;6.10;96.90;;;;;;5116018;28;20196;-56
2022/04/21 05:24:07;;;;;;;5.57;4.50;;;6.20;96.70;;;;;;5116059;28;20689;-56
2022/04/21 05:26:36;;;;;;;5.57;4.38;;;6.20;96.50;;;;;;5116368;28;20211;-56
2022/04/21 05:30:55;;;;;;;5.15;4.40;;;6.30;96.40;;;;;;5115834;28;20219;-57
2022/04/21 05:31:56;;;;;;;7.50;4.53;;;6.40;96.30;;;;;;5115805;28;20290;-59
2022/04/21 05:34:24;;;;;;;6.28;4.50;;;6.50;96.40;;;;;;5116100;28;20188;-59
2022/04/21 05:36:52;;;;;;;4.47;3.92;;;6.60;95.80;;;;;;5116117;28;20211;-59
2022/04/21 05:39:20;;;;;;;5.28;4.55;;;6.70;95.50;;;;;;5116016;28;20223;-59
2022/04/21 05:41:47;;;;;;;5.38;4.65;;;6.70;95.10;;;;;;5116066;28;20242;-61
2022/04/21 05:44:15;;;;;;;4.75;4.22;;;6.80;94.80;;;;;;5115789;28;20203;-57
2022/04/21 05:46:43;;;;;;;4.65;4.25;;;6.90;94.40;;;;;;5115205;28;20200;-59
2022/04/21 05:49:12;;;;;;;7.18;4.57;;;7.00;94.20;;;;;;5115222;28;20227;-57
2022/04/21 05:51:41;;;;;;;5.13;4.22;;;7.10;94.20;;;;;;5115885;28;20217;-58
2022/04/21 05:54:08;;;;;;;4.78;4.25;;;7.10;93.70;;;;;;5115256;28;20663;-57
2022/04/21 05:56:36;;;;;;;4.85;4.32;;;7.20;93.20;;;;;;5115813;28;20364;-56
2022/04/21 05:59:04;;;;;;;6.78;4.50;;;7.30;93.00;;;;;;5115314;28;20215;-56
2022/04/21 06:01:31;;;;;;;5.60;4.97;;;7.40;92.90;;;;;;5115294;28;20331;-56
2022/04/21 06:03:58;;;;;;;6.80;4.80;;;7.50;92.50;;;;;;5115370;28;20195;-55
2022/04/21 06:06:27;;;;;;;5.40;4.90;;;7.50;92.00;;;;;;5115352;28;20199;-58
2022/04/21 06:08:54;;;;;;;6.18;3.90;;;7.50;91.80;;;;;;5114935;28;20599;-55
2022/04/21 06:11:22;;;;;;;4.82;4.30;;;7.60;91.70;;;;;;5115131;28;20203;-57
2022/04/21 06:13:51;;;;;;;7.70;4.32;;;7.60;91.50;;;;;;5116299;28;20200;-56
2022/04/21 06:16:18;;;;;;;7.75;4.72;;;7.60;91.30;;;;;;5115265;28;20686;-57
2022/04/21 06:18:45;;;;;;;4.68;4.28;;;7.60;91.20;;;;;;5114898;28;20218;-58
2022/04/21 06:21:12;;;;;;;6.68;4.50;;;7.70;91.20;;;;;;5115411;28;20200;-58
2022/04/21 06:23:40;;;;;;;6.10;4.68;;;7.80;91.00;;;;;;5115139;28;20203;-57
2022/04/21 06:26:08;;;;;;;6.05;4.57;;;7.80;90.70;;;;;;5115271;28;20203;-58
2022/04/21 06:28:35;;;;;;;7.85;4.50;;;7.80;90.60;;;;;;5114676;28;20610;-58
2022/04/21 06:31:03;;;;;;;5.50;4.30;;;7.80;90.60;;;;;;5113959;28;20564;-58
2022/04/21 06:33:31;;;;;;;5.30;4.80;;;7.80;90.50;;;;;;5115079;28;20640;-58
2022/04/21 06:35:58;;;;;;;5.72;4.20;;;8.00;90.40;;;;;;5115357;28;20582;-57
2022/04/21 06:38:25;;;;;;;6.57;5.30;;;8.10;90.10;;;;;;5114474;28;20223;-59
2022/04/21 06:40:54;;;;;;;9.32;4.97;;;8.20;89.50;;;;;;5114868;28;20199;-59
2022/04/21 06:48:50;;;;;;;6.00;4.60;;;8.30;88.00;;;;;;5114871;28;20223;-60
2022/04/21 06:51:18;;;;;;;4.60;4.10;;;8.30;87.50;;;;;;5115040;28;20231;-60
2022/04/21 06:53:45;;;;;;;6.22;4.22;;;8.30;87.30;;;;;;5114273;28;20207;-60
2022/04/21 06:56:14;;;;;;;4.65;4.25;;;8.30;87.20;;;;;;5114052;28;20690;-59
2022/04/21 06:58:41;;;;;;;5.80;4.32;;;8.30;87.30;;;;;;5114433;28;20304;-59
2022/04/21 07:01:08;;;;;;;4.90;4.50;;;8.40;87.10;;;;;;5114518;28;20199;-61
2022/04/21 07:03:35;;;;;;;6.18;4.50;;;8.50;86.60;;;;;;5114042;28;20204;-59
2022/04/21 07:06:03;;;;;;;7.40;5.18;;;8.50;86.20;;;;;;5114208;28;20226;-61
2022/04/21 07:08:30;;;;;;;5.70;4.55;;;8.50;85.70;;;;;;5113454;28;20268;-60
2022/04/21 07:10:57;;;;;;;5.30;4.63;;;8.40;85.70;;;;;;5114237;28;20207;-58
2022/04/21 07:13:25;;;;;;;5.97;4.72;;;8.40;85.60;;;;;;5114213;28;20208;-57
2022/04/21 07:15:54;;;;;;;6.55;4.93;;;8.40;85.60;;;;;;5113996;28;20203;-57
2022/04/21 07:18:21;;;;;;;5.28;4.50;;;8.50;85.50;;;;;;5114139;28;20285;-58
2022/04/21 07:20:48;;;;;;;5.82;4.50;;;8.50;85.20;;;;;;5113901;28;20200;-59
2022/04/21 07:23:15;;;;;;;6.95;4.35;;;8.60;85.00;;;;;;5113586;28;20493;-56
2022/04/21 07:25:42;;;;;;;5.00;4.30;;;8.70;84.50;;;;;;5113491;28;20671;-60
2022/04/21 07:28:10;;;;;;;6.72;4.63;;;8.70;84.10;;;;;;5113841;28;20277;-57
2022/04/21 07:30:39;;;;;;;5.43;4.45;;;8.70;83.60;;;;;;5113599;28;20199;-57
2022/04/21 07:33:06;;;;;;;6.47;4.80;;;8.70;83.60;;;;;;5113388;28;20200;-58
2022/04/21 07:35:34;;;;;;;5.10;3.90;;;8.70;83.70;;;;;;5113533;28;20639;-56
2022/04/21 07:38:01;;;;;;;5.50;4.95;;;8.70;84.00;;;;;;5113609;28;20549;-59
2022/04/21 07:40:28;;;;;;;6.85;4.57;;;8.70;84.00;;;;;;5114497;28;20200;-59
2022/04/21 07:42:55;;;;;;;5.32;4.20;;;8.70;83.90;;;;;;5112980;28;20694;-58
2022/04/21 07:45:22;;;;;;;5.65;4.68;;;8.80;83.90;;;;;;5113619;28;20234;-58
2022/04/21 07:47:50;;;;;;;7.47;5.25;;;8.90;83.40;;;;;;5113916;28;20200;-58
2022/04/21 07:50:18;;;;;;;6.33;4.73;;;9.10;83.10;;;;;;5113445;28;20322;-58
2022/04/21 07:55:30;;;;;;;5.05;4.38;;;9.50;80.20;;;;;;5113699;28;20401;-57
2022/04/21 07:57:57;;;;;;;6.93;4.30;;;9.50;80.10;;;;;;5113332;28;20281;-60
2022/04/21 08:00:25;;;;;;;4.80;4.40;;;9.60;80.30;;;;;;5113608;28;20206;-58
2022/04/21 08:02:54;;;;;;;5.20;4.70;;;9.80;79.10;;;;;;5113588;28;20442;-57
2022/04/21 08:05:22;;;;;;;6.83;4.87;;;10.00;76.90;;;;;;5113776;28;20476;-57
2022/04/21 08:07:51;;;;;;;7.20;4.40;;;10.10;75.80;;;;;;5113198;28;20464;-58
2022/04/21 08:10:18;;;;;;;4.27;3.87;;;10.20;75.20;;;;;;5113390;28;20552;-57
2022/04/21 08:12:47;;;;;;;6.90;4.13;;;10.20;74.00;;;;;;5113473;28;20441;-58
2022/04/21 08:15:22;;;;;;;5.17;4.23;;;10.20;73.80;;;;;;5113172;28;20852;-59
2022/04/21 08:17:49;;;;;;;5.07;4.57;;;10.20;73.70;;;;;;5113252;28;20429;-57
2022/04/21 08:20:17;;;;;;;6.80;4.30;;;10.20;73.60;;;;;;5113284;28;20977;-59
2022/04/21 08:22:45;;;;;;;8.23;4.47;;;10.40;73.70;;;;;;5112919;28;20855;-58
2022/04/21 08:33:25;;;;;;;5.17;4.67;;;11.10;69.10;;;;;;5113124;28;20405;-59
2022/04/21 08:35:58;;;;;;;4.57;4.17;;;11.20;68.40;;;;;;5113163;28;20450;-60
2022/04/21 08:38:25;;;;;;;9.47;5.73;;;11.30;67.30;;;;;;5113468;28;20471;-59
2022/04/21 08:40:54;;;;;;;11.60;4.30;;;11.40;67.10;;;;;;5112799;28;20445;-60
2022/04/21 08:43:22;;;;;;;5.57;4.53;;;11.40;66.50;;;;;;5113231;28;20441;-59
2022/04/21 08:45:50;;;;;;;5.10;4.40;;;11.60;66.40;;;;;;5112707;28;20452;-59
2022/04/21 08:48:18;;;;;;;8.93;4.30;;;11.80;66.10;;;;;;5112809;28;20466;-59
2022/04/21 08:50:47;;;;;;;5.23;4.40;;;11.90;64.00;;;;;;5113010;28;20485;-58
2022/04/21 08:53:18;;;;;;;6.07;4.10;;;11.90;63.90;;;;;;5113416;28;20445;-58
2022/04/21 08:55:45;;;;;;;5.93;4.43;;;11.90;63.50;;;;;;5116866;28;20433;-57
2022/04/21 08:58:12;;;;;;;5.20;4.27;;;11.90;63.70;;;;;;5117778;28;20985;-59
2022/04/21 09:00:42;;;;;;;5.50;4.80;;;11.90;63.70;;;;;;5117640;28;20438;-58
2022/04/21 09:03:09;;;;;;;5.23;4.30;;;12.00;63.20;;;;;;5116834;28;20485;-58
2022/04/21 09:05:37;;;;;;;6.77;4.33;;;12.00;63.20;;;;;;5116917;28;20834;-58
2022/04/21 09:08:05;;;;;;;4.90;4.40;;;12.00;62.90;;;;;;5116413;28;20483;-59
2022/04/21 09:10:34;;;;;;;5.93;4.60;;;12.00;63.00;;;;;;5116290;28;20992;-59
2022/04/21 09:13:03;;;;;;;5.67;4.63;;;12.10;62.80;;;;;;5116729;28;20445;-60
2022/04/21 09:15:31;;;;;;;8.93;5.77;;;12.20;62.50;;;;;;5116515;28;20441;-60
2022/04/21 09:18:00;;;;;;;5.73;5.20;;;12.30;62.20;;;;;;5116455;28;20450;-59
2022/04/21 09:20:30;;;;;;;5.00;4.50;;;12.50;62.20;;;;;;5116025;28;20445;-57
2022/04/21 09:22:59;;;;;;;4.77;4.27;;;12.60;60.40;;;;;;5116004;28;20433;-57
2022/04/21 09:25:30;;;;;;;6.00;4.70;;;12.80;60.10;;;;;;5116106;28;20449;-57
2022/04/21 09:28:02;;;;;;;5.47;4.87;;;12.90;59.90;;;;;;5117692;28;20841;-58
2022/04/21 09:30:29;;;;;;;5.37;4.00;;;13.10;59.40;;;;;;5116542;28;20465;-59
2022/04/21 09:32:58;;;;;;;5.23;4.37;;;13.30;58.60;;;;;;5116521;28;20467;-68
2022/04/21 09:35:27;;;;;;;5.23;4.73;;;13.40;58.10;;;;;;5116765;28;20460;-58
2022/04/21 09:37:55;;;;;;;4.93;4.43;;;13.40;58.10;;;;;;5117154;28;20441;-59
2022/04/21 09:40:25;;;;;;;7.57;4.60;;;13.50;58.00;;;;;;5084915;22;20892;-58
2022/04/21 09:42:59;;;;;;;5.70;4.60;;;13.60;57.50;;;;;;5055180;28;20440;-59
2022/04/21 09:48:21;;;;;;;7.00;6.30;;;13.40;57.40;;;;;;5055760;28;20787;-57
2022/04/21 09:50:52;;;;;;;6.17;4.87;;;13.40;57.60;;;;;;5055363;28;20492;-59
2022/04/21 09:53:24;;;;;;;7.10;4.57;;;13.40;57.50;;;;;;5055591;28;20456;-57
2022/04/21 09:55:52;;;;;;;5.70;4.40;;;13.60;57.30;;;;;;5055336;28;20554;-57
2022/04/21 09:58:21;;;;;;;6.80;5.20;;;13.80;56.70;;;;;;5055249;28;20531;-57
2022/04/21 10:00:48;;;;;;;5.73;4.33;;;14.10;56.10;;;;;;5054993;28;20483;-57
2022/04/21 10:03:15;;;;;;;6.07;4.60;;;14.30;55.30;;;;;;5054857;28;20829;-57
2022/04/21 10:05:42;;;;;;;5.87;4.43;;;14.30;54.90;;;;;;5055138;28;20474;-57
2022/04/21 10:08:11;;;;;;;5.87;4.40;;;14.30;55.00;;;;;;5054957;28;20452;-55
2022/04/21 10:10:40;;;;;;;4.97;4.30;;;14.40;54.80;;;;;;5054581;28;20497;-57
2022/04/21 10:13:08;;;;;;;7.80;4.77;;;14.40;54.40;;;;;;5055010;28;20460;-58
2022/04/21 10:15:38;;;;;;;6.27;4.77;;;14.40;54.20;;;;;;5056256;28;20452;-57
2022/04/21 10:18:08;;;;;;;7.03;4.83;;;14.30;54.30;;;;;;5054626;28;20444;-57
2022/04/21 10:20:36;;;;;;;7.03;4.80;;;14.50;54.30;;;;;;5054437;28;20788;-58
2022/04/21 10:23:04;;;;;;;5.80;4.30;;;14.70;54.00;;;;;;5054645;28;20456;-59
2022/04/21 10:25:38;;;;;;;5.10;4.53;;;15.00;53.40;;;;;;5055128;28;20863;-58
2022/04/21 10:28:37;;;;;;;7.20;4.63;;;15.10;52.80;;;;;;5057087;28;20789;-54
2022/04/21 10:31:31;;;;;;;5.87;4.80;;;15.10;52.80;;;;;;5054983;28;20514;-58
2022/04/21 10:34:01;;;;;;;6.90;4.30;;;15.30;52.60;;;;;;5054516;28;20484;-58
2022/04/21 10:36:41;;;;;;;5.17;4.67;;;15.50;52.20;;;;;;5054293;28;20454;-57
2022/04/21 10:39:27;;;;;;;5.40;3.73;;;15.60;51.80;;;;;;5054003;28;20543;-57
2022/04/21 10:42:17;;;;;;;10.50;4.40;;;15.60;51.70;;;;;;5054554;28;20444;-58
2022/04/21 10:44:47;;;;;;;4.57;3.60;;;15.70;51.70;;;;;;5054410;28;20438;-57
2022/04/21 10:47:36;;;;;;;5.43;3.87;;;15.70;51.50;;;;;;5054379;28;20446;-58
2022/04/21 10:50:14;;;;;;;5.10;4.60;;;15.70;51.30;;;;;;5054078;28;20481;-58
2022/04/21 10:58:50;;;;;;;5.60;4.17;;;15.10;52.50;;;;;;5059165;28;20406;-56
2022/04/21 11:01:19;;;;;;;6.47;4.03;;;15.20;52.60;;;;;;5053899;28;20524;-60
2022/04/21 11:04:07;;;;;;;6.30;4.00;;;15.30;52.60;;;;;;5054871;28;20472;-60
2022/04/21 11:06:42;;;;;;;9.53;5.27;;;15.30;52.50;;;;;;5056219;28;20443;-59
2022/04/21 11:09:10;;;;;;;7.07;3.90;;;15.30;52.50;;;;;;5054166;28;20538;-59
2022/04/21 11:11:47;;;;;;;6.30;4.30;;;15.20;52.70;;;;;;5054032;28;20487;-59
2022/04/21 11:14:31;;;;;;;7.33;4.10;;;15.00;53.10;;;;;;5053624;28;20455;-60
2022/04/21 11:16:59;;;;;;;6.07;3.63;;;14.80;53.40;;;;;;5053558;28;20463;-59
2022/04/21 11:19:40;;;;;;;4.50;3.57;;;14.80;53.70;;;;;;5053487;28;20472;-59
2022/04/21 11:22:09;;;;;;;6.50;4.00;;;14.70;53.90;;;;;;5053743;28;20508;-59
2022/04/21 11:25:02;;;;;;;6.80;4.10;;;14.70;54.10;;;;;;5053497;28;20476;-59
2022/04/21 11:27:31;;;;;;;8.67;4.33;;;14.70;54.10;;;;;;5053844;28;20445;-56
2022/04/21 11:30:11;;;;;;;7.17;4.07;;;14.70;54.30;;;;;;5053638;28;20503;-59
2022/04/21 11:32:38;;;;;;;6.03;4.40;;;14.80;54.30;;;;;;5057599;28;20809;-57
2022/04/21 11:35:10;;;;;;;10.10;5.00;;;14.90;54.20;;;;;;5053003;28;20931;-57
2022/04/21 11:37:48;;;;;;;4.33;3.70;;;14.90;54.10;;;;;;5053444;28;20441;-57
2022/04/21 11:40:30;;;;;;;6.73;4.53;;;14.90;54.10;;;;;;5053042;28;20472;-58
2022/04/21 11:42:58;;;;;;;8.53;3.90;;;14.90;54.20;;;;;;5053398;28;20429;-59
2022/04/21 11:45:27;;;;;;;7.43;4.20;;;15.00;54.10;;;;;;5054139;28;20968;-60
2022/04/21 11:47:55;;;;;;;7.87;4.10;;;15.10;54.00;;;;;;5053679;28;20488;-61
2022/04/21 11:50:25;;;;;;;4.73;4.23;;;15.20;53.90;;;;;;5053298;28;20496;-59
2022/04/21 11:52:54;;;;;;;11.10;4.83;;;15.20;53.90;;;;;;5052753;28;20899;-59
2022/04/21 11:55:25;;;;;;;5.80;4.53;;;15.20;53.80;;;;;;5052806;28;20486;-58
2022/04/21 11:57:53;;;;;;;6.47;4.57;;;15.20;53.90;;;;;;5057526;28;20437;-58
2022/04/21 12:08:49;;;;;;;8.83;4.53;;;15.70;53.30;;;;;;5054932;28;20412;-54
2022/04/21 12:11:18;;;;;;;10.23;4.77;;;15.70;53.20;;;;;;5052849;28;20474;-59
2022/04/21 12:13:45;;;;;;;6.17;4.50;;;15.80;53.00;;;;;;5053356;28;20508;-59
2022/04/21 12:16:38;;;;;;;7.00;4.90;;;15.70;53.00;;;;;;5052748;28;20444;-57
2022/04/21 12:19:18;;;;;;;7.43;4.93;;;15.60;53.10;;;;;;5034079;28;20471;-57
2022/04/21 12:21:58;;;;;;;7.67;4.53;;;15.60;53.30;;;;;;5054151;28;20427;-56
2022/04/21 12:24:31;;;;;;;4.90;4.00;;;15.60;53.40;;;;;;5052803;28;20432;-55
2022/04/21 12:26:58;;;;;;;6.13;4.33;;;15.50;54.00;;;;;;5052720;28;20894;-58
2022/04/21 12:29:27;;;;;;;5.57;4.40;;;15.60;53.50;;;;;;5052993;28;20465;-57
2022/04/21 12:32:10;;;;;;;6.67;4.47;;;15.70;53.30;;;;;;5059429;28;20493;-57
2022/04/21 12:34:41;;;;;;;4.77;4.27;;;15.70;53.30;;;;;;5057587;28;20548;-58
2022/04/21 12:37:10;;;;;;;6.20;4.33;;;15.70;53.40;;;;;;5059325;28;20454;-57
2022/04/21 12:39:38;;;;;;;5.67;4.13;;;15.70;53.40;;;;;;5058552;28;20487;-60
2022/04/21 12:42:06;;;;;;;7.13;4.50;;;15.80;53.30;;;;;;5060188;28;20442;-57
2022/04/21 12:44:34;;;;;;;7.97;4.83;;;15.90;53.20;;;;;;5057607;28;20446;-60
2022/04/21 12:47:03;;;;;;;6.90;4.90;;;16.00;53.10;;;;;;5059244;28;20454;-59
2022/04/21 12:49:56;;;;;;;5.03;4.53;;;16.00;52.80;;;;;;5057799;28;20574;-58
2022/04/21 12:52:32;;;;;;;4.57;4.00;;;16.10;52.80;;;;;;5057896;28;20450;-59
2022/04/21 12:55:00;;;;;;;7.80;4.33;;;16.10;52.80;;;;;;5056988;28;20439;-58
2022/04/21 12:57:57;;;;;;;4.23;3.80;;;16.10;52.70;;;;;;5061040;28;20528;-59
2022/04/21 13:00:24;;;;;;;6.30;4.67;;;16.20;52.60;;;;;;5022512;28;21009;-58
2022/04/21 13:02:51;;;;;;;8.90;4.87;;;16.20;52.40;;;;;;5056317;28;20939;-57
2022/04/21 13:05:19;;;;;;;7.10;4.77;;;16.30;52.30;;;;;;5056964;28;20533;-58
2022/04/21 13:07:47;;;;;;;7.17;4.70;;;16.30;52.30;;;;;;5056525;28;20465;-58
2022/04/21 13:10:14;;;;;;;8.53;5.40;;;16.30;52.20;;;;;;5056171;28;20485;-58
2022/04/21 13:12:41;;;;;;;11.43;5.87;;;16.40;52.10;;;;;;5056074;28;20895;-57
2022/04/21 13:15:09;;;;;;;7.40;4.73;;;16.30;52.00;;;;;;5056656;28;20823;-57
2022/04/21 13:17:37;;;;;;;7.97;4.80;;;16.30;52.10;;;;;;5055924;28;20840;-58
2022/04/21 13:20:04;;;;;;;5.97;5.27;;;16.20;52.10;;;;;;5056107;28;20479;-58
2022/04/21 13:22:31;;;;;;;6.70;4.70;;;16.20;52.20;;;;;;5057239;28;20451;-57
2022/04/21 13:25:00;;;;;;;7.23;5.27;;;16.20;52.20;;;;;;5056838;28;20806;-57
2022/04/21 13:27:29;;;;;;;7.37;4.93;;;16.40;52.00;;;;;;5056803;28;20451;-58
2022/04/21 13:29:56;;;;;;;8.00;4.93;;;16.50;51.80;;;;;;5060817;28;20463;-58
2022/04/21 13:35:08;;;;;;;6.57;4.80;;;16.60;51.70;;;;;;5016649;28;20930;-58
2022/04/21 13:37:35;;;;;;;7.03;4.90;;;16.60;51.60;;;;;;5056734;28;20457;-59
2022/04/21 13:40:05;;;;;;;8.33;4.10;;;16.60;51.50;;;;;;5055470;28;20482;-55
2022/04/21 13:42:32;;;;;;;7.70;4.10;;;16.60;51.50;;;;;;5056225;28;20453;-56
2022/04/21 13:44:59;;;;;;;8.67;5.30;;;16.50;51.70;;;;;;5056020;28;20455;-57
2022/04/21 13:47:26;;;;;;;6.50;4.60;;;16.30;51.80;;;;;;5055500;28;20444;-58
2022/04/21 13:49:53;;;;;;;7.37;5.07;;;16.20;52.00;;;;;;5055643;28;20466;-60
2022/04/21 13:52:20;;;;;;;6.43;5.30;;;16.20;52.10;;;;;;5060833;28;20479;-58
2022/04/21 13:54:48;;;;;;;6.17;5.20;;;16.00;52.20;;;;;;5063391;28;20507;-57
2022/04/21 13:57:16;;;;;;;5.30;4.80;;;15.90;52.50;;;;;;5063455;28;20514;-59
2022/04/21 13:59:43;;;;;;;8.03;5.40;;;15.80;52.60;;;;;;5063353;28;20475;-58
2022/04/21 14:02:10;;;;;;;8.73;5.40;;;15.80;52.70;;;;;;5062797;28;20604;-59